sensor_id;sensor_type;location;lat;lon;timestamp;P1;durP1;ratioP1;P2;durP2;ratioP2
33138;SDS011;19501;50.948;5.316;2022-10-16T00:01:05;5.10;;;1.92;;
33138;SDS011;19501;50.948;5.316;2022-10-16T00:03:38;6.32;;;2.30;;
33138;SDS011;19501;50.948;5.316;2022-10-16T00:06:04;6.40;;;2.30;;
33138;SDS011;19501;50.948;5.316;2022-10-16T00:08:33;4.47;;;2.20;;
33138;SDS011;19501;50.948;5.316;2022-10-16T00:11:00;6.03;;;2.13;;
33138;SDS011;19501;50.948;5.316;2022-10-16T00:13:28;7.93;;;2.30;;
33138;SDS011;19501;50.948;5.316;2022-10-16T00:15:55;3.10;;;2.00;;
33138;SDS011;19501;50.948;5.316;2022-10-16T00:18:23;2.97;;;2.00;;
33138;SDS011;19501;50.948;5.316;2022-10-16T00:20:50;5.97;;;2.30;;
33138;SDS011;19501;50.948;5.316;2022-10-16T00:23:16;7.15;;;2.10;;
33138;SDS011;19501;50.948;5.316;2022-10-16T00:25:42;3.33;;;1.80;;
33138;SDS011;19501;50.948;5.316;2022-10-16T00:28:08;8.15;;;2.47;;
33138;SDS011;19501;50.948;5.316;2022-10-16T00:30:34;4.45;;;2.13;;
33138;SDS011;19501;50.948;5.316;2022-10-16T00:33:03;5.05;;;2.05;;
33138;SDS011;19501;50.948;5.316;2022-10-16T00:35:28;10.52;;;2.60;;
33138;SDS011;19501;50.948;5.316;2022-10-16T00:37:55;5.18;;;2.10;;
33138;SDS011;19501;50.948;5.316;2022-10-16T00:40:20;8.57;;;2.53;;
33138;SDS011;19501;50.948;5.316;2022-10-16T00:42:47;3.38;;;1.90;;
33138;SDS011;19501;50.948;5.316;2022-10-16T00:45:12;5.45;;;2.47;;
33138;SDS011;19501;50.948;5.316;2022-10-16T00:47:44;5.05;;;2.10;;
33138;SDS011;19501;50.948;5.316;2022-10-16T00:52:51;3.58;;;1.63;;
33138;SDS011;19501;50.948;5.316;2022-10-16T00:55:17;3.22;;;2.10;;
33138;SDS011;19501;50.948;5.316;2022-10-16T00:57:44;5.93;;;1.85;;
33138;SDS011;19501;50.948;5.316;2022-10-16T01:00:15;4.93;;;2.10;;
33138;SDS011;19501;50.948;5.316;2022-10-16T01:02:51;3.42;;;2.00;;
33138;SDS011;19501;50.948;5.316;2022-10-16T01:05:36;3.70;;;2.25;;
33138;SDS011;19501;50.948;5.316;2022-10-16T01:08:13;5.07;;;2.22;;
33138;SDS011;19501;50.948;5.316;2022-10-16T01:13:38;3.80;;;2.17;;
33138;SDS011;19501;50.948;5.316;2022-10-16T01:16:09;3.78;;;1.98;;
33138;SDS011;19501;50.948;5.316;2022-10-16T01:18:43;4.13;;;1.65;;
33138;SDS011;19501;50.948;5.316;2022-10-16T01:29:20;8.88;;;2.25;;
33138;SDS011;19501;50.948;5.316;2022-10-16T01:32:14;3.10;;;2.15;;
33138;SDS011;19501;50.948;5.316;2022-10-16T01:34:53;3.55;;;2.20;;
33138;SDS011;19501;50.948;5.316;2022-10-16T01:40:00;4.30;;;2.03;;
33138;SDS011;19501;50.948;5.316;2022-10-16T01:42:31;4.15;;;1.92;;
33138;SDS011;19501;50.948;5.316;2022-10-16T01:45:02;6.72;;;2.13;;
33138;SDS011;19501;50.948;5.316;2022-10-16T01:47:32;5.85;;;2.20;;
33138;SDS011;19501;50.948;5.316;2022-10-16T01:50:01;4.47;;;2.03;;
33138;SDS011;19501;50.948;5.316;2022-10-16T01:52:29;5.05;;;2.00;;
33138;SDS011;19501;50.948;5.316;2022-10-16T01:54:57;3.22;;;2.00;;
33138;SDS011;19501;50.948;5.316;2022-10-16T01:57:25;2.53;;;1.90;;
33138;SDS011;19501;50.948;5.316;2022-10-16T01:59:54;4.32;;;2.03;;
33138;SDS011;19501;50.948;5.316;2022-10-16T02:02:25;7.40;;;2.20;;
33138;SDS011;19501;50.948;5.316;2022-10-16T02:04:54;4.30;;;2.10;;
33138;SDS011;19501;50.948;5.316;2022-10-16T02:07:41;3.30;;;1.60;;
33138;SDS011;19501;50.948;5.316;2022-10-16T02:10:07;3.70;;;1.90;;
33138;SDS011;19501;50.948;5.316;2022-10-16T02:12:33;5.18;;;2.13;;
33138;SDS011;19501;50.948;5.316;2022-10-16T02:15:04;4.60;;;2.40;;
33138;SDS011;19501;50.948;5.316;2022-10-16T02:17:31;4.43;;;2.03;;
33138;SDS011;19501;50.948;5.316;2022-10-16T02:19:59;5.50;;;2.30;;
33138;SDS011;19501;50.948;5.316;2022-10-16T02:22:42;6.55;;;2.47;;
33138;SDS011;19501;50.948;5.316;2022-10-16T02:25:19;5.00;;;2.10;;
33138;SDS011;19501;50.948;5.316;2022-10-16T02:30:39;5.82;;;2.08;;
33138;SDS011;19501;50.948;5.316;2022-10-16T02:33:21;5.30;;;2.40;;
33138;SDS011;19501;50.948;5.316;2022-10-16T02:35:48;4.63;;;2.17;;
33138;SDS011;19501;50.948;5.316;2022-10-16T02:38:16;4.57;;;2.35;;
33138;SDS011;19501;50.948;5.316;2022-10-16T02:40:44;6.95;;;2.42;;
33138;SDS011;19501;50.948;5.316;2022-10-16T02:43:10;3.53;;;2.30;;
33138;SDS011;19501;50.948;5.316;2022-10-16T02:45:37;4.32;;;2.30;;
33138;SDS011;19501;50.948;5.316;2022-10-16T02:48:03;4.70;;;2.80;;
33138;SDS011;19501;50.948;5.316;2022-10-16T02:50:28;8.32;;;2.55;;
33138;SDS011;19501;50.948;5.316;2022-10-16T02:52:54;3.13;;;2.20;;
33138;SDS011;19501;50.948;5.316;2022-10-16T02:55:19;3.72;;;2.00;;
33138;SDS011;19501;50.948;5.316;2022-10-16T02:57:45;5.10;;;2.15;;
33138;SDS011;19501;50.948;5.316;2022-10-16T03:00:12;6.50;;;2.60;;
33138;SDS011;19501;50.948;5.316;2022-10-16T03:02:39;5.05;;;2.45;;
33138;SDS011;19501;50.948;5.316;2022-10-16T03:05:05;5.75;;;2.38;;
33138;SDS011;19501;50.948;5.316;2022-10-16T03:07:31;5.38;;;2.20;;
33138;SDS011;19501;50.948;5.316;2022-10-16T03:09:57;4.05;;;2.22;;
33138;SDS011;19501;50.948;5.316;2022-10-16T03:12:25;5.50;;;2.50;;
33138;SDS011;19501;50.948;5.316;2022-10-16T03:14:56;5.22;;;2.10;;
33138;SDS011;19501;50.948;5.316;2022-10-16T03:17:22;6.28;;;2.30;;
33138;SDS011;19501;50.948;5.316;2022-10-16T03:19:49;4.40;;;2.20;;
33138;SDS011;19501;50.948;5.316;2022-10-16T03:22:14;4.68;;;2.50;;
33138;SDS011;19501;50.948;5.316;2022-10-16T03:24:42;5.95;;;2.50;;
33138;SDS011;19501;50.948;5.316;2022-10-16T03:27:10;3.33;;;2.22;;
33138;SDS011;19501;50.948;5.316;2022-10-16T03:29:36;6.32;;;2.50;;
33138;SDS011;19501;50.948;5.316;2022-10-16T03:32:02;5.22;;;2.17;;
33138;SDS011;19501;50.948;5.316;2022-10-16T03:34:28;6.47;;;2.38;;
33138;SDS011;19501;50.948;5.316;2022-10-16T03:36:54;4.32;;;2.33;;
33138;SDS011;19501;50.948;5.316;2022-10-16T03:39:20;4.57;;;2.25;;
33138;SDS011;19501;50.948;5.316;2022-10-16T03:41:46;6.72;;;2.40;;
33138;SDS011;19501;50.948;5.316;2022-10-16T03:44:12;4.07;;;2.33;;
33138;SDS011;19501;50.948;5.316;2022-10-16T03:46:38;6.07;;;2.80;;
33138;SDS011;19501;50.948;5.316;2022-10-16T03:49:04;3.58;;;2.20;;
33138;SDS011;19501;50.948;5.316;2022-10-16T03:51:30;16.75;;;4.75;;
33138;SDS011;19501;50.948;5.316;2022-10-16T03:53:55;4.78;;;2.15;;
33138;SDS011;19501;50.948;5.316;2022-10-16T03:56:21;4.88;;;2.25;;
33138;SDS011;19501;50.948;5.316;2022-10-16T03:58:47;8.80;;;2.60;;
33138;SDS011;19501;50.948;5.316;2022-10-16T04:01:12;4.65;;;2.42;;
33138;SDS011;19501;50.948;5.316;2022-10-16T04:03:38;4.68;;;2.20;;
33138;SDS011;19501;50.948;5.316;2022-10-16T04:06:03;10.50;;;2.75;;
33138;SDS011;19501;50.948;5.316;2022-10-16T04:08:29;3.83;;;2.15;;
33138;SDS011;19501;50.948;5.316;2022-10-16T04:10:55;10.57;;;4.03;;
33138;SDS011;19501;50.948;5.316;2022-10-16T04:13:20;6.65;;;2.40;;
33138;SDS011;19501;50.948;5.316;2022-10-16T04:15:46;5.10;;;2.50;;
33138;SDS011;19501;50.948;5.316;2022-10-16T04:18:12;5.88;;;2.72;;
33138;SDS011;19501;50.948;5.316;2022-10-16T04:20:38;5.65;;;2.85;;
33138;SDS011;19501;50.948;5.316;2022-10-16T04:23:04;6.93;;;2.55;;
33138;SDS011;19501;50.948;5.316;2022-10-16T04:25:30;5.30;;;2.63;;
33138;SDS011;19501;50.948;5.316;2022-10-16T04:27:55;4.75;;;2.40;;
33138;SDS011;19501;50.948;5.316;2022-10-16T04:30:22;7.63;;;2.72;;
33138;SDS011;19501;50.948;5.316;2022-10-16T04:32:48;6.30;;;2.55;;
33138;SDS011;19501;50.948;5.316;2022-10-16T04:35:15;6.32;;;2.75;;
33138;SDS011;19501;50.948;5.316;2022-10-16T04:37:42;6.63;;;2.53;;
33138;SDS011;19501;50.948;5.316;2022-10-16T04:40:07;7.38;;;2.70;;
33138;SDS011;19501;50.948;5.316;2022-10-16T04:42:33;5.65;;;2.63;;
33138;SDS011;19501;50.948;5.316;2022-10-16T04:44:59;8.05;;;2.95;;
33138;SDS011;19501;50.948;5.316;2022-10-16T04:47:25;8.40;;;2.92;;
33138;SDS011;19501;50.948;5.316;2022-10-16T04:49:50;7.72;;;3.20;;
33138;SDS011;19501;50.948;5.316;2022-10-16T04:52:16;7.18;;;2.97;;
33138;SDS011;19501;50.948;5.316;2022-10-16T04:54:42;8.85;;;3.05;;
33138;SDS011;19501;50.948;5.316;2022-10-16T04:57:10;6.90;;;3.00;;
33138;SDS011;19501;50.948;5.316;2022-10-16T04:59:38;9.00;;;3.22;;
33138;SDS011;19501;50.948;5.316;2022-10-16T05:02:04;11.45;;;3.70;;
33138;SDS011;19501;50.948;5.316;2022-10-16T05:04:30;8.23;;;2.92;;
33138;SDS011;19501;50.948;5.316;2022-10-16T05:06:55;10.63;;;3.38;;
33138;SDS011;19501;50.948;5.316;2022-10-16T05:09:22;10.23;;;3.35;;
33138;SDS011;19501;50.948;5.316;2022-10-16T05:11:48;9.73;;;3.45;;
33138;SDS011;19501;50.948;5.316;2022-10-16T05:14:13;7.60;;;3.60;;
33138;SDS011;19501;50.948;5.316;2022-10-16T05:16:39;9.38;;;3.75;;
33138;SDS011;19501;50.948;5.316;2022-10-16T05:19:08;12.10;;;3.90;;
33138;SDS011;19501;50.948;5.316;2022-10-16T05:21:34;9.75;;;3.30;;
33138;SDS011;19501;50.948;5.316;2022-10-16T05:24:00;7.22;;;3.45;;
33138;SDS011;19501;50.948;5.316;2022-10-16T05:26:25;8.82;;;3.67;;
33138;SDS011;19501;50.948;5.316;2022-10-16T05:28:51;9.68;;;3.53;;
33138;SDS011;19501;50.948;5.316;2022-10-16T05:31:21;9.57;;;3.88;;
33138;SDS011;19501;50.948;5.316;2022-10-16T05:33:47;9.88;;;3.70;;
33138;SDS011;19501;50.948;5.316;2022-10-16T05:36:13;6.45;;;3.42;;
33138;SDS011;19501;50.948;5.316;2022-10-16T05:38:39;10.77;;;3.72;;
33138;SDS011;19501;50.948;5.316;2022-10-16T05:41:05;10.07;;;3.40;;
33138;SDS011;19501;50.948;5.316;2022-10-16T05:43:31;8.80;;;3.33;;
33138;SDS011;19501;50.948;5.316;2022-10-16T05:45:58;10.52;;;4.20;;
33138;SDS011;19501;50.948;5.316;2022-10-16T05:48:28;13.27;;;3.90;;
33138;SDS011;19501;50.948;5.316;2022-10-16T05:51:00;10.55;;;4.55;;
33138;SDS011;19501;50.948;5.316;2022-10-16T05:53:32;12.02;;;4.35;;
33138;SDS011;19501;50.948;5.316;2022-10-16T05:55:58;13.27;;;4.57;;
33138;SDS011;19501;50.948;5.316;2022-10-16T05:58:25;10.00;;;4.20;;
33138;SDS011;19501;50.948;5.316;2022-10-16T06:03:20;11.18;;;4.07;;
33138;SDS011;19501;50.948;5.316;2022-10-16T06:05:46;10.40;;;3.97;;
33138;SDS011;19501;50.948;5.316;2022-10-16T06:08:12;11.23;;;4.20;;
33138;SDS011;19501;50.948;5.316;2022-10-16T06:10:37;11.65;;;4.45;;
33138;SDS011;19501;50.948;5.316;2022-10-16T06:13:03;11.73;;;4.35;;
33138;SDS011;19501;50.948;5.316;2022-10-16T06:15:29;10.23;;;4.30;;
33138;SDS011;19501;50.948;5.316;2022-10-16T06:17:54;10.07;;;4.45;;
33138;SDS011;19501;50.948;5.316;2022-10-16T06:20:20;11.48;;;4.03;;
33138;SDS011;19501;50.948;5.316;2022-10-16T06:22:46;9.90;;;4.05;;
33138;SDS011;19501;50.948;5.316;2022-10-16T06:25:11;11.25;;;4.20;;
33138;SDS011;19501;50.948;5.316;2022-10-16T06:27:39;10.85;;;4.25;;
33138;SDS011;19501;50.948;5.316;2022-10-16T06:30:05;10.60;;;4.20;;
33138;SDS011;19501;50.948;5.316;2022-10-16T06:32:32;8.02;;;3.95;;
33138;SDS011;19501;50.948;5.316;2022-10-16T06:35:00;10.02;;;4.30;;
33138;SDS011;19501;50.948;5.316;2022-10-16T06:37:26;13.15;;;4.13;;
33138;SDS011;19501;50.948;5.316;2022-10-16T06:39:52;10.15;;;4.05;;
33138;SDS011;19501;50.948;5.316;2022-10-16T06:42:18;10.98;;;4.80;;
33138;SDS011;19501;50.948;5.316;2022-10-16T06:44:44;10.57;;;4.00;;
33138;SDS011;19501;50.948;5.316;2022-10-16T06:47:10;12.65;;;4.47;;
33138;SDS011;19501;50.948;5.316;2022-10-16T06:49:36;9.63;;;3.78;;
33138;SDS011;19501;50.948;5.316;2022-10-16T06:52:02;8.68;;;4.13;;
33138;SDS011;19501;50.948;5.316;2022-10-16T06:54:28;10.52;;;4.22;;
33138;SDS011;19501;50.948;5.316;2022-10-16T06:56:54;12.40;;;4.45;;
33138;SDS011;19501;50.948;5.316;2022-10-16T06:59:20;13.02;;;4.10;;
33138;SDS011;19501;50.948;5.316;2022-10-16T07:01:46;9.57;;;4.18;;
33138;SDS011;19501;50.948;5.316;2022-10-16T07:04:12;8.88;;;4.07;;
33138;SDS011;19501;50.948;5.316;2022-10-16T07:06:38;7.55;;;3.40;;
33138;SDS011;19501;50.948;5.316;2022-10-16T07:09:04;8.18;;;3.67;;
33138;SDS011;19501;50.948;5.316;2022-10-16T07:11:32;10.50;;;3.90;;
33138;SDS011;19501;50.948;5.316;2022-10-16T07:13:58;7.63;;;3.60;;
33138;SDS011;19501;50.948;5.316;2022-10-16T07:16:25;8.45;;;3.90;;
33138;SDS011;19501;50.948;5.316;2022-10-16T07:18:53;11.43;;;3.90;;
33138;SDS011;19501;50.948;5.316;2022-10-16T07:21:23;10.75;;;3.85;;
33138;SDS011;19501;50.948;5.316;2022-10-16T07:23:51;10.70;;;3.92;;
33138;SDS011;19501;50.948;5.316;2022-10-16T07:26:22;10.88;;;4.18;;
33138;SDS011;19501;50.948;5.316;2022-10-16T07:28:49;11.02;;;3.58;;
33138;SDS011;19501;50.948;5.316;2022-10-16T07:31:16;9.40;;;3.65;;
33138;SDS011;19501;50.948;5.316;2022-10-16T07:33:43;7.15;;;3.35;;
33138;SDS011;19501;50.948;5.316;2022-10-16T07:36:10;12.15;;;4.13;;
33138;SDS011;19501;50.948;5.316;2022-10-16T07:38:37;7.32;;;3.63;;
33138;SDS011;19501;50.948;5.316;2022-10-16T07:41:05;7.90;;;3.47;;
33138;SDS011;19501;50.948;5.316;2022-10-16T07:43:32;10.98;;;3.95;;
33138;SDS011;19501;50.948;5.316;2022-10-16T07:45:59;7.75;;;3.80;;
33138;SDS011;19501;50.948;5.316;2022-10-16T07:48:29;10.50;;;3.78;;
33138;SDS011;19501;50.948;5.316;2022-10-16T07:50:57;9.95;;;3.80;;
33138;SDS011;19501;50.948;5.316;2022-10-16T07:53:24;11.77;;;4.15;;
33138;SDS011;19501;50.948;5.316;2022-10-16T07:55:50;9.10;;;4.10;;
33138;SDS011;19501;50.948;5.316;2022-10-16T07:58:16;8.20;;;3.90;;
33138;SDS011;19501;50.948;5.316;2022-10-16T08:00:44;9.93;;;3.60;;
33138;SDS011;19501;50.948;5.316;2022-10-16T08:03:09;14.07;;;3.65;;
33138;SDS011;19501;50.948;5.316;2022-10-16T08:05:35;10.80;;;3.63;;
33138;SDS011;19501;50.948;5.316;2022-10-16T08:08:01;10.57;;;3.58;;
33138;SDS011;19501;50.948;5.316;2022-10-16T08:10:28;10.10;;;3.72;;
33138;SDS011;19501;50.948;5.316;2022-10-16T08:12:54;6.32;;;3.30;;
33138;SDS011;19501;50.948;5.316;2022-10-16T08:15:20;10.48;;;3.50;;
33138;SDS011;19501;50.948;5.316;2022-10-16T08:17:58;8.88;;;3.45;;
33138;SDS011;19501;50.948;5.316;2022-10-16T08:20:28;5.43;;;2.70;;
33138;SDS011;19501;50.948;5.316;2022-10-16T08:22:55;8.25;;;2.97;;
33138;SDS011;19501;50.948;5.316;2022-10-16T08:25:21;8.32;;;3.47;;
33138;SDS011;19501;50.948;5.316;2022-10-16T08:27:48;5.97;;;3.17;;
33138;SDS011;19501;50.948;5.316;2022-10-16T08:30:15;8.18;;;3.05;;
33138;SDS011;19501;50.948;5.316;2022-10-16T08:32:42;9.63;;;3.08;;
33138;SDS011;19501;50.948;5.316;2022-10-16T08:35:08;7.88;;;3.05;;
33138;SDS011;19501;50.948;5.316;2022-10-16T08:37:37;8.30;;;3.05;;
33138;SDS011;19501;50.948;5.316;2022-10-16T08:40:04;7.47;;;3.40;;
33138;SDS011;19501;50.948;5.316;2022-10-16T08:42:47;9.05;;;3.03;;
33138;SDS011;19501;50.948;5.316;2022-10-16T08:45:44;6.93;;;2.80;;
33138;SDS011;19501;50.948;5.316;2022-10-16T08:48:45;8.05;;;3.40;;
33138;SDS011;19501;50.948;5.316;2022-10-16T08:51:20;11.13;;;2.97;;
33138;SDS011;19501;50.948;5.316;2022-10-16T08:53:59;9.60;;;3.40;;
33138;SDS011;19501;50.948;5.316;2022-10-16T08:56:31;10.20;;;3.20;;
33138;SDS011;19501;50.948;5.316;2022-10-16T08:58:58;10.73;;;3.25;;
33138;SDS011;19501;50.948;5.316;2022-10-16T09:01:27;6.35;;;2.90;;
33138;SDS011;19501;50.948;5.316;2022-10-16T09:15:06;6.70;;;2.65;;
33138;SDS011;19501;50.948;5.316;2022-10-16T09:23:36;6.93;;;2.67;;
33138;SDS011;19501;50.948;5.316;2022-10-16T09:25:42;7.60;;;2.75;;
33138;SDS011;19501;50.948;5.316;2022-10-16T09:28:15;7.30;;;2.78;;
33138;SDS011;19501;50.948;5.316;2022-10-16T09:30:42;5.38;;;2.38;;
33138;SDS011;19501;50.948;5.316;2022-10-16T09:33:08;7.72;;;2.75;;
33138;SDS011;19501;50.948;5.316;2022-10-16T09:35:42;8.10;;;2.63;;
33138;SDS011;19501;50.948;5.316;2022-10-16T09:40:54;4.40;;;2.58;;
33138;SDS011;19501;50.948;5.316;2022-10-16T09:43:25;5.50;;;2.55;;
33138;SDS011;19501;50.948;5.316;2022-10-16T09:46:00;7.57;;;2.22;;
33138;SDS011;19501;50.948;5.316;2022-10-16T09:48:47;5.27;;;2.60;;
33138;SDS011;19501;50.948;5.316;2022-10-16T09:51:18;6.60;;;2.42;;
33138;SDS011;19501;50.948;5.316;2022-10-16T09:53:48;11.57;;;2.70;;
33138;SDS011;19501;50.948;5.316;2022-10-16T09:56:25;6.60;;;2.40;;
33138;SDS011;19501;50.948;5.316;2022-10-16T09:58:59;8.07;;;2.83;;
33138;SDS011;19501;50.948;5.316;2022-10-16T10:01:28;7.00;;;2.65;;
33138;SDS011;19501;50.948;5.316;2022-10-16T10:04:03;6.22;;;2.92;;
33138;SDS011;19501;50.948;5.316;2022-10-16T10:06:34;11.15;;;3.00;;
33138;SDS011;19501;50.948;5.316;2022-10-16T10:09:17;11.73;;;3.67;;
33138;SDS011;19501;50.948;5.316;2022-10-16T10:11:55;10.18;;;3.13;;
33138;SDS011;19501;50.948;5.316;2022-10-16T10:17:10;8.57;;;2.80;;
33138;SDS011;19501;50.948;5.316;2022-10-16T10:22:25;6.97;;;2.80;;
33138;SDS011;19501;50.948;5.316;2022-10-16T10:24:57;9.30;;;2.33;;
33138;SDS011;19501;50.948;5.316;2022-10-16T10:35:40;5.15;;;2.15;;
33138;SDS011;19501;50.948;5.316;2022-10-16T10:38:43;8.15;;;2.33;;
33138;SDS011;19501;50.948;5.316;2022-10-16T10:46:34;9.00;;;2.60;;
33138;SDS011;19501;50.948;5.316;2022-10-16T10:52:06;7.30;;;2.42;;
33138;SDS011;19501;50.948;5.316;2022-10-16T10:59:43;8.02;;;2.50;;
33138;SDS011;19501;50.948;5.316;2022-10-16T11:08:20;6.80;;;2.72;;
33138;SDS011;19501;50.948;5.316;2022-10-16T11:10:59;6.40;;;2.55;;
33138;SDS011;19501;50.948;5.316;2022-10-16T11:13:35;5.43;;;2.55;;
33138;SDS011;19501;50.948;5.316;2022-10-16T11:16:14;6.25;;;2.40;;
33138;SDS011;19501;50.948;5.316;2022-10-16T11:18:52;6.20;;;2.38;;
33138;SDS011;19501;50.948;5.316;2022-10-16T11:21:27;5.70;;;2.28;;
33138;SDS011;19501;50.948;5.316;2022-10-16T11:24:35;6.32;;;1.95;;
33138;SDS011;19501;50.948;5.316;2022-10-16T11:27:08;8.93;;;2.17;;
33138;SDS011;19501;50.948;5.316;2022-10-16T11:29:45;5.47;;;1.98;;
33138;SDS011;19501;50.948;5.316;2022-10-16T11:32:21;6.43;;;1.90;;
33138;SDS011;19501;50.948;5.316;2022-10-16T11:34:57;6.78;;;2.20;;
33138;SDS011;19501;50.948;5.316;2022-10-16T11:37:28;6.18;;;1.90;;
33138;SDS011;19501;50.948;5.316;2022-10-16T11:40:02;5.90;;;2.03;;
33138;SDS011;19501;50.948;5.316;2022-10-16T11:42:51;7.13;;;2.38;;
33138;SDS011;19501;50.948;5.316;2022-10-16T11:45:29;6.88;;;1.95;;
33138;SDS011;19501;50.948;5.316;2022-10-16T11:48:12;7.38;;;2.10;;
33138;SDS011;19501;50.948;5.316;2022-10-16T11:56:00;5.00;;;1.98;;
33138;SDS011;19501;50.948;5.316;2022-10-16T11:58:28;5.63;;;2.13;;
33138;SDS011;19501;50.948;5.316;2022-10-16T12:03:49;6.60;;;2.42;;
33138;SDS011;19501;50.948;5.316;2022-10-16T12:06:45;7.82;;;2.30;;
33138;SDS011;19501;50.948;5.316;2022-10-16T12:09:27;4.22;;;2.03;;
33138;SDS011;19501;50.948;5.316;2022-10-16T12:11:55;4.10;;;2.20;;
33138;SDS011;19501;50.948;5.316;2022-10-16T12:14:43;10.15;;;1.95;;
33138;SDS011;19501;50.948;5.316;2022-10-16T12:19:59;5.72;;;1.80;;
33138;SDS011;19501;50.948;5.316;2022-10-16T12:25:30;7.07;;;1.90;;
33138;SDS011;19501;50.948;5.316;2022-10-16T12:28:02;4.72;;;1.90;;
33138;SDS011;19501;50.948;5.316;2022-10-16T12:30:29;5.45;;;2.20;;
33138;SDS011;19501;50.948;5.316;2022-10-16T12:33:03;4.72;;;1.90;;
33138;SDS011;19501;50.948;5.316;2022-10-16T12:35:33;8.00;;;2.13;;
33138;SDS011;19501;50.948;5.316;2022-10-16T12:38:27;5.43;;;1.90;;
33138;SDS011;19501;50.948;5.316;2022-10-16T12:41:10;5.88;;;2.05;;
33138;SDS011;19501;50.948;5.316;2022-10-16T12:43:39;4.32;;;2.10;;
33138;SDS011;19501;50.948;5.316;2022-10-16T12:48:36;8.77;;;2.05;;
33138;SDS011;19501;50.948;5.316;2022-10-16T12:53:45;5.80;;;1.83;;
33138;SDS011;19501;50.948;5.316;2022-10-16T12:56:22;2.58;;;1.90;;
33138;SDS011;19501;50.948;5.316;2022-10-16T13:05:04;4.85;;;1.98;;
33138;SDS011;19501;50.948;5.316;2022-10-16T13:08:01;5.10;;;2.28;;
33138;SDS011;19501;50.948;5.316;2022-10-16T13:10:41;4.00;;;2.22;;
33138;SDS011;19501;50.948;5.316;2022-10-16T13:18:29;4.05;;;1.85;;
33138;SDS011;19501;50.948;5.316;2022-10-16T13:26:31;4.18;;;1.90;;
33138;SDS011;19501;50.948;5.316;2022-10-16T13:29:04;6.88;;;1.85;;
33138;SDS011;19501;50.948;5.316;2022-10-16T13:31:30;5.43;;;2.03;;
33138;SDS011;19501;50.948;5.316;2022-10-16T13:33:57;5.80;;;2.20;;
33138;SDS011;19501;50.948;5.316;2022-10-16T13:41:42;5.55;;;2.17;;
33138;SDS011;19501;50.948;5.316;2022-10-16T13:44:18;4.85;;;1.95;;
33138;SDS011;19501;50.948;5.316;2022-10-16T13:46:45;4.97;;;1.90;;
33138;SDS011;19501;50.948;5.316;2022-10-16T13:49:13;3.90;;;2.03;;
33138;SDS011;19501;50.948;5.316;2022-10-16T13:51:40;5.32;;;2.13;;
33138;SDS011;19501;50.948;5.316;2022-10-16T13:54:09;3.67;;;1.80;;
33138;SDS011;19501;50.948;5.316;2022-10-16T13:56:38;4.68;;;2.40;;
33138;SDS011;19501;50.948;5.316;2022-10-16T13:59:06;6.13;;;1.70;;
33138;SDS011;19501;50.948;5.316;2022-10-16T14:01:47;4.50;;;1.90;;
33138;SDS011;19501;50.948;5.316;2022-10-16T14:04:15;3.70;;;1.75;;
33138;SDS011;19501;50.948;5.316;2022-10-16T14:06:42;4.10;;;1.63;;
33138;SDS011;19501;50.948;5.316;2022-10-16T14:09:26;5.47;;;1.70;;
33138;SDS011;19501;50.948;5.316;2022-10-16T14:12:07;6.95;;;1.90;;
33138;SDS011;19501;50.948;5.316;2022-10-16T14:14:40;3.83;;;1.75;;
33138;SDS011;19501;50.948;5.316;2022-10-16T14:17:15;3.33;;;1.55;;
33138;SDS011;19501;50.948;5.316;2022-10-16T14:19:45;6.88;;;1.73;;
33138;SDS011;19501;50.948;5.316;2022-10-16T14:22:21;5.18;;;1.63;;
33138;SDS011;19501;50.948;5.316;2022-10-16T14:25:18;6.82;;;1.70;;
33138;SDS011;19501;50.948;5.316;2022-10-16T14:30:29;4.32;;;1.75;;
33138;SDS011;19501;50.948;5.316;2022-10-16T14:33:01;4.75;;;1.80;;
33138;SDS011;19501;50.948;5.316;2022-10-16T14:35:30;5.25;;;1.80;;
33138;SDS011;19501;50.948;5.316;2022-10-16T14:38:02;7.97;;;1.63;;
33138;SDS011;19501;50.948;5.316;2022-10-16T14:40:33;3.58;;;1.77;;
33138;SDS011;19501;50.948;5.316;2022-10-16T14:43:01;3.72;;;1.60;;
33138;SDS011;19501;50.948;5.316;2022-10-16T14:45:30;3.83;;;1.65;;
33138;SDS011;19501;50.948;5.316;2022-10-16T14:48:00;7.63;;;1.85;;
33138;SDS011;19501;50.948;5.316;2022-10-16T14:50:29;5.60;;;1.80;;
33138;SDS011;19501;50.948;5.316;2022-10-16T14:52:55;5.20;;;1.77;;
33138;SDS011;19501;50.948;5.316;2022-10-16T14:55:21;5.78;;;1.70;;
33138;SDS011;19501;50.948;5.316;2022-10-16T14:57:47;5.85;;;1.83;;
33138;SDS011;19501;50.948;5.316;2022-10-16T15:00:17;4.78;;;1.90;;
33138;SDS011;19501;50.948;5.316;2022-10-16T15:02:46;6.70;;;2.05;;
33138;SDS011;19501;50.948;5.316;2022-10-16T15:05:20;5.28;;;2.10;;
33138;SDS011;19501;50.948;5.316;2022-10-16T15:07:48;4.72;;;1.83;;
33138;SDS011;19501;50.948;5.316;2022-10-16T15:10:16;3.80;;;1.83;;
33138;SDS011;19501;50.948;5.316;2022-10-16T15:12:44;2.58;;;1.73;;
33138;SDS011;19501;50.948;5.316;2022-10-16T15:15:33;6.43;;;2.35;;
33138;SDS011;19501;50.948;5.316;2022-10-16T15:18:01;3.33;;;1.50;;
33138;SDS011;19501;50.948;5.316;2022-10-16T15:20:29;4.30;;;1.63;;
33138;SDS011;19501;50.948;5.316;2022-10-16T15:22:58;7.13;;;2.00;;
33138;SDS011;19501;50.948;5.316;2022-10-16T15:25:37;9.43;;;2.35;;
33138;SDS011;19501;50.948;5.316;2022-10-16T15:28:06;5.65;;;2.00;;
33138;SDS011;19501;50.948;5.316;2022-10-16T15:30:32;2.97;;;1.80;;
33138;SDS011;19501;50.948;5.316;2022-10-16T15:32:59;7.30;;;2.38;;
33138;SDS011;19501;50.948;5.316;2022-10-16T15:35:25;4.68;;;2.00;;
33138;SDS011;19501;50.948;5.316;2022-10-16T15:37:51;13.68;;;4.80;;
33138;SDS011;19501;50.948;5.316;2022-10-16T15:40:17;17.75;;;5.43;;
33138;SDS011;19501;50.948;5.316;2022-10-16T15:42:44;20.00;;;5.93;;
33138;SDS011;19501;50.948;5.316;2022-10-16T15:45:11;60.53;;;22.15;;
33138;SDS011;19501;50.948;5.316;2022-10-16T15:47:37;48.58;;;21.08;;
33138;SDS011;19501;50.948;5.316;2022-10-16T15:50:04;56.97;;;24.10;;
33138;SDS011;19501;50.948;5.316;2022-10-16T15:52:31;48.30;;;20.27;;
33138;SDS011;19501;50.948;5.316;2022-10-16T15:54:57;36.47;;;15.82;;
33138;SDS011;19501;50.948;5.316;2022-10-16T15:57:23;33.17;;;13.48;;
33138;SDS011;19501;50.948;5.316;2022-10-16T15:59:50;26.05;;;10.68;;
33138;SDS011;19501;50.948;5.316;2022-10-16T16:02:18;20.08;;;6.13;;
33138;SDS011;19501;50.948;5.316;2022-10-16T16:04:44;11.10;;;3.90;;
33138;SDS011;19501;50.948;5.316;2022-10-16T16:07:10;6.93;;;3.40;;
33138;SDS011;19501;50.948;5.316;2022-10-16T16:09:36;13.55;;;3.15;;
33138;SDS011;19501;50.948;5.316;2022-10-16T16:12:02;13.35;;;3.70;;
33138;SDS011;19501;50.948;5.316;2022-10-16T16:14:28;16.25;;;6.15;;
33138;SDS011;19501;50.948;5.316;2022-10-16T16:16:55;16.75;;;5.20;;
33138;SDS011;19501;50.948;5.316;2022-10-16T16:19:21;21.00;;;5.50;;
33138;SDS011;19501;50.948;5.316;2022-10-16T16:21:50;20.00;;;5.60;;
33138;SDS011;19501;50.948;5.316;2022-10-16T16:24:16;14.20;;;5.00;;
33138;SDS011;19501;50.948;5.316;2022-10-16T16:26:41;15.07;;;5.22;;
33138;SDS011;19501;50.948;5.316;2022-10-16T16:29:12;8.55;;;3.90;;
33138;SDS011;19501;50.948;5.316;2022-10-16T16:31:40;14.07;;;3.88;;
33138;SDS011;19501;50.948;5.316;2022-10-16T16:34:07;13.75;;;4.30;;
33138;SDS011;19501;50.948;5.316;2022-10-16T16:36:34;14.50;;;5.40;;
33138;SDS011;19501;50.948;5.316;2022-10-16T16:39:00;14.20;;;5.15;;
33138;SDS011;19501;50.948;5.316;2022-10-16T16:41:27;19.10;;;6.35;;
33138;SDS011;19501;50.948;5.316;2022-10-16T16:43:54;16.13;;;5.78;;
33138;SDS011;19501;50.948;5.316;2022-10-16T16:46:26;14.90;;;5.40;;
33138;SDS011;19501;50.948;5.316;2022-10-16T16:48:52;14.25;;;5.50;;
33138;SDS011;19501;50.948;5.316;2022-10-16T16:51:20;13.82;;;5.03;;
33138;SDS011;19501;50.948;5.316;2022-10-16T16:53:47;14.20;;;5.30;;
33138;SDS011;19501;50.948;5.316;2022-10-16T16:56:15;20.20;;;6.38;;